sensor_id;sensor_type;location;lat;lon;timestamp;temperature;humidity
18105;DHT22;9179;50.968;3.134;2023-04-10T00:00:00;12.90;99.90
18105;DHT22;9179;50.968;3.134;2023-04-10T00:02:27;12.90;99.90
18105;DHT22;9179;50.968;3.134;2023-04-10T00:04:54;12.90;99.90
18105;DHT22;9179;50.968;3.134;2023-04-10T00:07:21;12.90;99.90
18105;DHT22;9179;50.968;3.134;2023-04-10T00:09:49;12.90;99.90
18105;DHT22;9179;50.968;3.134;2023-04-10T00:12:16;12.90;99.90
18105;DHT22;9179;50.968;3.134;2023-04-10T00:14:43;12.90;99.90
18105;DHT22;9179;50.968;3.134;2023-04-10T00:17:10;12.90;99.90
18105;DHT22;9179;50.968;3.134;2023-04-10T00:19:37;12.90;99.90
18105;DHT22;9179;50.968;3.134;2023-04-10T00:22:04;12.90;99.90
18105;DHT22;9179;50.968;3.134;2023-04-10T00:24:31;12.90;99.90
18105;DHT22;9179;50.968;3.134;2023-04-10T00:26:59;12.90;99.90
18105;DHT22;9179;50.968;3.134;2023-04-10T00:29:26;12.80;99.90
18105;DHT22;9179;50.968;3.134;2023-04-10T00:31:53;12.80;99.90
18105;DHT22;9179;50.968;3.134;2023-04-10T00:34:20;12.80;99.90
18105;DHT22;9179;50.968;3.134;2023-04-10T00:36:47;12.80;99.90
18105;DHT22;9179;50.968;3.134;2023-04-10T00:39:14;12.80;99.90
18105;DHT22;9179;50.968;3.134;2023-04-10T00:41:41;12.80;99.90
18105;DHT22;9179;50.968;3.134;2023-04-10T00:44:09;12.80;99.90
18105;DHT22;9179;50.968;3.134;2023-04-10T00:46:36;12.80;99.90
18105;DHT22;9179;50.968;3.134;2023-04-10T00:49:04;12.70;99.90
18105;DHT22;9179;50.968;3.134;2023-04-10T00:51:32;12.80;99.90
18105;DHT22;9179;50.968;3.134;2023-04-10T00:53:59;12.70;99.90
18105;DHT22;9179;50.968;3.134;2023-04-10T00:56:27;12.70;99.90
18105;DHT22;9179;50.968;3.134;2023-04-10T00:58:56;12.70;99.90
18105;DHT22;9179;50.968;3.134;2023-04-10T01:01:24;12.70;99.90
18105;DHT22;9179;50.968;3.134;2023-04-10T01:03:52;12.70;99.90
18105;DHT22;9179;50.968;3.134;2023-04-10T01:06:27;12.80;99.90
18105;DHT22;9179;50.968;3.134;2023-04-10T01:09:00;12.80;99.90
18105;DHT22;9179;50.968;3.134;2023-04-10T01:11:45;12.70;99.90
18105;DHT22;9179;50.968;3.134;2023-04-10T01:14:22;12.70;99.90
18105;DHT22;9179;50.968;3.134;2023-04-10T01:16:56;12.70;99.90
18105;DHT22;9179;50.968;3.134;2023-04-10T01:19:32;12.60;99.90
18105;DHT22;9179;50.968;3.134;2023-04-10T01:22:06;12.60;99.90
18105;DHT22;9179;50.968;3.134;2023-04-10T01:24:49;12.40;99.90
18105;DHT22;9179;50.968;3.134;2023-04-10T01:27:29;12.40;99.90
18105;DHT22;9179;50.968;3.134;2023-04-10T01:30:00;12.40;99.90
18105;DHT22;9179;50.968;3.134;2023-04-10T01:32:30;12.30;99.90
18105;DHT22;9179;50.968;3.134;2023-04-10T01:35:04;12.20;99.90
18105;DHT22;9179;50.968;3.134;2023-04-10T01:37:34;12.20;99.90
18105;DHT22;9179;50.968;3.134;2023-04-10T01:40:04;12.20;99.90
18105;DHT22;9179;50.968;3.134;2023-04-10T01:42:37;12.20;99.90
18105;DHT22;9179;50.968;3.134;2023-04-10T01:45:08;12.20;99.90
18105;DHT22;9179;50.968;3.134;2023-04-10T01:47:37;12.20;99.90
18105;DHT22;9179;50.968;3.134;2023-04-10T01:50:06;12.20;99.90
18105;DHT22;9179;50.968;3.134;2023-04-10T01:52:34;12.20;99.90
18105;DHT22;9179;50.968;3.134;2023-04-10T01:55:01;12.20;99.90
18105;DHT22;9179;50.968;3.134;2023-04-10T01:57:29;12.20;99.90
18105;DHT22;9179;50.968;3.134;2023-04-10T01:59:57;12.20;99.90
18105;DHT22;9179;50.968;3.134;2023-04-10T02:02:29;12.20;99.90
18105;DHT22;9179;50.968;3.134;2023-04-10T02:04:56;12.20;99.90
18105;DHT22;9179;50.968;3.134;2023-04-10T02:07:28;12.20;99.90
18105;DHT22;9179;50.968;3.134;2023-04-10T02:10:00;12.20;99.90
18105;DHT22;9179;50.968;3.134;2023-04-10T02:12:29;12.10;99.90
18105;DHT22;9179;50.968;3.134;2023-04-10T02:15:00;12.10;99.90
18105;DHT22;9179;50.968;3.134;2023-04-10T02:17:29;12.10;99.90
18105;DHT22;9179;50.968;3.134;2023-04-10T02:19:57;12.10;99.90
18105;DHT22;9179;50.968;3.134;2023-04-10T02:22:25;12.10;99.90
18105;DHT22;9179;50.968;3.134;2023-04-10T02:24:52;12.10;99.90
18105;DHT22;9179;50.968;3.134;2023-04-10T02:27:27;12.10;99.90
18105;DHT22;9179;50.968;3.134;2023-04-10T02:29:54;12.10;99.90
18105;DHT22;9179;50.968;3.134;2023-04-10T02:32:21;12.20;99.90
18105;DHT22;9179;50.968;3.134;2023-04-10T02:34:49;12.20;99.90
18105;DHT22;9179;50.968;3.134;2023-04-10T02:37:16;12.30;99.90
18105;DHT22;9179;50.968;3.134;2023-04-10T02:39:43;12.30;99.90
18105;DHT22;9179;50.968;3.134;2023-04-10T02:42:10;12.30;99.90
18105;DHT22;9179;50.968;3.134;2023-04-10T02:44:37;12.40;99.90
18105;DHT22;9179;50.968;3.134;2023-04-10T02:47:05;12.40;99.90
18105;DHT22;9179;50.968;3.134;2023-04-10T02:49:32;12.40;99.90
18105;DHT22;9179;50.968;3.134;2023-04-10T02:52:01;12.40;99.90
18105;DHT22;9179;50.968;3.134;2023-04-10T02:54:28;12.50;99.90
18105;DHT22;9179;50.968;3.134;2023-04-10T02:56:55;12.50;99.90
18105;DHT22;9179;50.968;3.134;2023-04-10T02:59:22;12.50;99.90
18105;DHT22;9179;50.968;3.134;2023-04-10T03:01:49;12.60;99.90
18105;DHT22;9179;50.968;3.134;2023-04-10T03:04:16;12.60;99.90
18105;DHT22;9179;50.968;3.134;2023-04-10T03:06:43;12.50;99.90
18105;DHT22;9179;50.968;3.134;2023-04-10T03:09:12;12.60;99.90
18105;DHT22;9179;50.968;3.134;2023-04-10T03:11:39;12.60;99.90
18105;DHT22;9179;50.968;3.134;2023-04-10T03:14:06;12.60;99.90
18105;DHT22;9179;50.968;3.134;2023-04-10T03:16:34;12.60;99.90
18105;DHT22;9179;50.968;3.134;2023-04-10T03:19:01;12.60;99.90
18105;DHT22;9179;50.968;3.134;2023-04-10T03:21:28;12.60;99.90
18105;DHT22;9179;50.968;3.134;2023-04-10T03:23:54;12.60;99.90
18105;DHT22;9179;50.968;3.134;2023-04-10T03:26:23;12.60;99.90
18105;DHT22;9179;50.968;3.134;2023-04-10T03:28:50;12.60;99.90
18105;DHT22;9179;50.968;3.134;2023-04-10T03:31:17;12.60;99.90
18105;DHT22;9179;50.968;3.134;2023-04-10T03:33:44;12.50;99.90
18105;DHT22;9179;50.968;3.134;2023-04-10T03:36:11;12.60;99.90
18105;DHT22;9179;50.968;3.134;2023-04-10T03:38:38;12.50;99.90
18105;DHT22;9179;50.968;3.134;2023-04-10T03:41:05;12.50;99.90
18105;DHT22;9179;50.968;3.134;2023-04-10T03:43:34;12.50;99.90
18105;DHT22;9179;50.968;3.134;2023-04-10T03:46:00;12.50;99.90
18105;DHT22;9179;50.968;3.134;2023-04-10T03:48:27;12.50;99.90
18105;DHT22;9179;50.968;3.134;2023-04-10T03:50:55;12.40;99.90
18105;DHT22;9179;50.968;3.134;2023-04-10T03:53:22;12.40;99.90
18105;DHT22;9179;50.968;3.134;2023-04-10T03:55:49;12.40;99.90
18105;DHT22;9179;50.968;3.134;2023-04-10T03:58:17;12.40;99.90
18105;DHT22;9179;50.968;3.134;2023-04-10T04:00:45;12.40;99.90
18105;DHT22;9179;50.968;3.134;2023-04-10T04:03:12;12.40;99.90
18105;DHT22;9179;50.968;3.134;2023-04-10T04:05:40;12.40;99.90
18105;DHT22;9179;50.968;3.134;2023-04-10T04:08:07;12.40;99.90
18105;DHT22;9179;50.968;3.134;2023-04-10T04:10:34;12.30;99.90
18105;DHT22;9179;50.968;3.134;2023-04-10T04:13:01;12.40;99.90
18105;DHT22;9179;50.968;3.134;2023-04-10T04:15:28;12.30;99.90
18105;DHT22;9179;50.968;3.134;2023-04-10T04:17:56;12.30;99.90
18105;DHT22;9179;50.968;3.134;2023-04-10T04:20:23;12.30;99.90
18105;DHT22;9179;50.968;3.134;2023-04-10T04:22:50;12.30;99.90
18105;DHT22;9179;50.968;3.134;2023-04-10T04:25:17;12.30;99.90
18105;DHT22;9179;50.968;3.134;2023-04-10T04:27:44;12.30;99.90
18105;DHT22;9179;50.968;3.134;2023-04-10T04:30:11;12.20;99.90
18105;DHT22;9179;50.968;3.134;2023-04-10T04:32:38;12.20;99.90
18105;DHT22;9179;50.968;3.134;2023-04-10T04:35:08;12.20;99.90
18105;DHT22;9179;50.968;3.134;2023-04-10T04:37:35;12.20;99.90
18105;DHT22;9179;50.968;3.134;2023-04-10T04:40:02;12.20;99.90
18105;DHT22;9179;50.968;3.134;2023-04-10T04:42:29;12.20;99.90
18105;DHT22;9179;50.968;3.134;2023-04-10T04:44:56;12.10;99.90
18105;DHT22;9179;50.968;3.134;2023-04-10T04:47:23;12.10;99.90
18105;DHT22;9179;50.968;3.134;2023-04-10T04:49:50;12.10;99.90
18105;DHT22;9179;50.968;3.134;2023-04-10T04:52:18;12.10;99.90
18105;DHT22;9179;50.968;3.134;2023-04-10T04:54:45;12.20;99.90
18105;DHT22;9179;50.968;3.134;2023-04-10T04:57:12;12.10;99.90
18105;DHT22;9179;50.968;3.134;2023-04-10T04:59:39;12.20;99.90
18105;DHT22;9179;50.968;3.134;2023-04-10T05:02:06;12.20;99.90
18105;DHT22;9179;50.968;3.134;2023-04-10T05:04:33;12.20;99.90
18105;DHT22;9179;50.968;3.134;2023-04-10T05:06:59;12.20;99.90
18105;DHT22;9179;50.968;3.134;2023-04-10T05:09:28;12.20;99.90
18105;DHT22;9179;50.968;3.134;2023-04-10T05:11:55;12.20;99.90
18105;DHT22;9179;50.968;3.134;2023-04-10T05:14:22;12.20;99.90
18105;DHT22;9179;50.968;3.134;2023-04-10T05:16:48;12.20;99.90
18105;DHT22;9179;50.968;3.134;2023-04-10T05:19:15;12.30;99.90
18105;DHT22;9179;50.968;3.134;2023-04-10T05:21:42;12.20;99.90
18105;DHT22;9179;50.968;3.134;2023-04-10T05:24:09;12.30;99.90
18105;DHT22;9179;50.968;3.134;2023-04-10T05:26:38;12.30;99.90
18105;DHT22;9179;50.968;3.134;2023-04-10T05:29:08;12.30;99.90
18105;DHT22;9179;50.968;3.134;2023-04-10T05:31:35;12.40;99.90
18105;DHT22;9179;50.968;3.134;2023-04-10T05:34:02;12.30;99.90
18105;DHT22;9179;50.968;3.134;2023-04-10T05:36:29;12.30;99.90
18105;DHT22;9179;50.968;3.134;2023-04-10T05:38:56;12.30;99.90
18105;DHT22;9179;50.968;3.134;2023-04-10T05:41:23;12.30;99.90
18105;DHT22;9179;50.968;3.134;2023-04-10T05:43:51;12.40;99.90
18105;DHT22;9179;50.968;3.134;2023-04-10T05:46:18;12.40;99.90
18105;DHT22;9179;50.968;3.134;2023-04-10T05:48:45;12.40;99.90
18105;DHT22;9179;50.968;3.134;2023-04-10T05:51:12;12.40;99.90
18105;DHT22;9179;50.968;3.134;2023-04-10T05:53:39;12.40;99.90
18105;DHT22;9179;50.968;3.134;2023-04-10T05:56:06;12.50;99.90
18105;DHT22;9179;50.968;3.134;2023-04-10T05:58:33;12.50;99.90
18105;DHT22;9179;50.968;3.134;2023-04-10T06:01:02;12.60;99.90
18105;DHT22;9179;50.968;3.134;2023-04-10T06:03:29;12.60;99.90
18105;DHT22;9179;50.968;3.134;2023-04-10T06:05:56;12.70;99.90
18105;DHT22;9179;50.968;3.134;2023-04-10T06:08:23;12.70;99.90
18105;DHT22;9179;50.968;3.134;2023-04-10T06:10:50;12.80;99.90
18105;DHT22;9179;50.968;3.134;2023-04-10T06:13:17;12.80;99.90
18105;DHT22;9179;50.968;3.134;2023-04-10T06:15:44;12.90;99.90
18105;DHT22;9179;50.968;3.134;2023-04-10T06:18:12;13.00;99.90
18105;DHT22;9179;50.968;3.134;2023-04-10T06:20:39;13.10;99.90
18105;DHT22;9179;50.968;3.134;2023-04-10T06:23:06;13.20;99.90
18105;DHT22;9179;50.968;3.134;2023-04-10T06:25:33;13.20;99.90
18105;DHT22;9179;50.968;3.134;2023-04-10T06:28:00;13.20;99.90
18105;DHT22;9179;50.968;3.134;2023-04-10T06:30:27;13.30;99.90
18105;DHT22;9179;50.968;3.134;2023-04-10T06:32:55;13.40;99.90
18105;DHT22;9179;50.968;3.134;2023-04-10T06:35:23;13.40;99.90
18105;DHT22;9179;50.968;3.134;2023-04-10T06:37:50;13.40;99.90
18105;DHT22;9179;50.968;3.134;2023-04-10T06:40:17;13.50;99.90
18105;DHT22;9179;50.968;3.134;2023-04-10T06:42:44;13.50;99.90
18105;DHT22;9179;50.968;3.134;2023-04-10T06:45:11;13.50;99.90
18105;DHT22;9179;50.968;3.134;2023-04-10T06:47:38;13.60;99.90
18105;DHT22;9179;50.968;3.134;2023-04-10T06:50:06;13.60;99.90
18105;DHT22;9179;50.968;3.134;2023-04-10T06:52:34;13.70;99.90
18105;DHT22;9179;50.968;3.134;2023-04-10T06:55:01;13.80;99.90
18105;DHT22;9179;50.968;3.134;2023-04-10T06:57:28;13.80;99.90
18105;DHT22;9179;50.968;3.134;2023-04-10T06:59:55;13.80;99.90
18105;DHT22;9179;50.968;3.134;2023-04-10T07:02:22;13.70;99.90
18105;DHT22;9179;50.968;3.134;2023-04-10T07:04:49;13.80;99.90
18105;DHT22;9179;50.968;3.134;2023-04-10T07:07:16;13.80;99.90
18105;DHT22;9179;50.968;3.134;2023-04-10T07:09:45;13.80;99.90
18105;DHT22;9179;50.968;3.134;2023-04-10T07:12:12;13.80;99.90
18105;DHT22;9179;50.968;3.134;2023-04-10T07:14:39;14.00;99.90
18105;DHT22;9179;50.968;3.134;2023-04-10T07:17:07;14.10;99.90
18105;DHT22;9179;50.968;3.134;2023-04-10T07:19:34;14.20;99.90
18105;DHT22;9179;50.968;3.134;2023-04-10T07:22:02;14.30;99.90
18105;DHT22;9179;50.968;3.134;2023-04-10T07:24:30;14.40;99.90
18105;DHT22;9179;50.968;3.134;2023-04-10T07:26:58;14.70;99.90
18105;DHT22;9179;50.968;3.134;2023-04-10T07:29:26;14.90;99.90
18105;DHT22;9179;50.968;3.134;2023-04-10T07:31:53;14.90;99.90
18105;DHT22;9179;50.968;3.134;2023-04-10T07:34:20;15.10;99.90
18105;DHT22;9179;50.968;3.134;2023-04-10T07:36:47;15.10;99.90
18105;DHT22;9179;50.968;3.134;2023-04-10T07:39:14;15.30;99.90
18105;DHT22;9179;50.968;3.134;2023-04-10T07:41:41;15.40;99.90
18105;DHT22;9179;50.968;3.134;2023-04-10T07:44:10;15.40;99.90
18105;DHT22;9179;50.968;3.134;2023-04-10T07:46:37;15.40;99.90
18105;DHT22;9179;50.968;3.134;2023-04-10T07:49:04;15.50;99.90
18105;DHT22;9179;50.968;3.134;2023-04-10T07:51:31;15.60;99.90
18105;DHT22;9179;50.968;3.134;2023-04-10T07:53:58;15.60;99.90
18105;DHT22;9179;50.968;3.134;2023-04-10T07:56:25;15.60;99.90
18105;DHT22;9179;50.968;3.134;2023-04-10T07:58:57;15.80;99.90
18105;DHT22;9179;50.968;3.134;2023-04-10T08:01:25;16.30;99.90
18105;DHT22;9179;50.968;3.134;2023-04-10T08:03:53;16.80;99.90
18105;DHT22;9179;50.968;3.134;2023-04-10T08:06:21;17.00;99.90
18105;DHT22;9179;50.968;3.134;2023-04-10T08:08:47;16.80;99.90
18105;DHT22;9179;50.968;3.134;2023-04-10T08:11:26;16.70;99.90
18105;DHT22;9179;50.968;3.134;2023-04-10T08:13:55;16.70;99.90
18105;DHT22;9179;50.968;3.134;2023-04-10T08:16:23;16.70;99.90
18105;DHT22;9179;50.968;3.134;2023-04-10T08:18:52;16.60;99.90
18105;DHT22;9179;50.968;3.134;2023-04-10T08:21:20;16.70;99.90
18105;DHT22;9179;50.968;3.134;2023-04-10T08:23:49;16.70;99.90
18105;DHT22;9179;50.968;3.134;2023-04-10T08:26:16;16.70;99.90
18105;DHT22;9179;50.968;3.134;2023-04-10T08:28:45;16.90;99.90
18105;DHT22;9179;50.968;3.134;2023-04-10T08:31:13;17.30;99.90
18105;DHT22;9179;50.968;3.134;2023-04-10T08:33:40;17.90;99.90
18105;DHT22;9179;50.968;3.134;2023-04-10T08:36:09;18.50;99.90
18105;DHT22;9179;50.968;3.134;2023-04-10T08:38:37;18.70;99.60
18105;DHT22;9179;50.968;3.134;2023-04-10T08:41:04;18.90;99.40
18105;DHT22;9179;50.968;3.134;2023-04-10T08:43:31;19.20;99.20
18105;DHT22;9179;50.968;3.134;2023-04-10T08:46:00;19.30;98.30
18105;DHT22;9179;50.968;3.134;2023-04-10T08:48:33;19.10;97.90
18105;DHT22;9179;50.968;3.134;2023-04-10T08:51:03;18.90;97.50
18105;DHT22;9179;50.968;3.134;2023-04-10T08:53:35;18.80;97.60
18105;DHT22;9179;50.968;3.134;2023-04-10T08:56:06;19.20;97.40
18105;DHT22;9179;50.968;3.134;2023-04-10T08:58:34;19.50;96.80
18105;DHT22;9179;50.968;3.134;2023-04-10T09:01:02;19.60;96.80
18105;DHT22;9179;50.968;3.134;2023-04-10T09:03:30;19.80;96.40
18105;DHT22;9179;50.968;3.134;2023-04-10T09:06:01;20.30;96.00
18105;DHT22;9179;50.968;3.134;2023-04-10T09:08:28;20.70;95.60
18105;DHT22;9179;50.968;3.134;2023-04-10T09:10:57;20.50;95.00
18105;DHT22;9179;50.968;3.134;2023-04-10T09:13:37;20.30;94.70
18105;DHT22;9179;50.968;3.134;2023-04-10T09:16:05;20.40;94.60
18105;DHT22;9179;50.968;3.134;2023-04-10T09:18:44;20.60;94.60
18105;DHT22;9179;50.968;3.134;2023-04-10T09:21:14;20.50;93.80
18105;DHT22;9179;50.968;3.134;2023-04-10T09:23:42;20.60;93.90
18105;DHT22;9179;50.968;3.134;2023-04-10T09:26:23;20.60;94.00
18105;DHT22;9179;50.968;3.134;2023-04-10T09:29:01;20.70;93.50
18105;DHT22;9179;50.968;3.134;2023-04-10T09:31:30;20.80;92.80
18105;DHT22;9179;50.968;3.134;2023-04-10T09:34:09;20.60;93.20
18105;DHT22;9179;50.968;3.134;2023-04-10T09:36:37;20.80;92.90
18105;DHT22;9179;50.968;3.134;2023-04-10T09:39:05;20.70;92.50
18105;DHT22;9179;50.968;3.134;2023-04-10T09:41:34;20.20;92.50
18105;DHT22;9179;50.968;3.134;2023-04-10T09:44:05;20.00;92.80
18105;DHT22;9179;50.968;3.134;2023-04-10T09:46:32;20.20;92.50
18105;DHT22;9179;50.968;3.134;2023-04-10T09:48:59;20.30;93.10
18105;DHT22;9179;50.968;3.134;2023-04-10T09:51:30;20.60;92.90
18105;DHT22;9179;50.968;3.134;2023-04-10T09:53:58;20.50;92.60
18105;DHT22;9179;50.968;3.134;2023-04-10T09:56:26;20.30;92.50
18105;DHT22;9179;50.968;3.134;2023-04-10T09:58:57;20.10;92.60
18105;DHT22;9179;50.968;3.134;2023-04-10T10:01:25;19.80;92.70
18105;DHT22;9179;50.968;3.134;2023-04-10T10:03:53;19.40;93.10
18105;DHT22;9179;50.968;3.134;2023-04-10T10:06:21;19.00;93.40
18105;DHT22;9179;50.968;3.134;2023-04-10T10:08:48;18.80;93.70
18105;DHT22;9179;50.968;3.134;2023-04-10T10:11:20;18.60;94.10
18105;DHT22;9179;50.968;3.134;2023-04-10T10:13:49;18.60;94.40
18105;DHT22;9179;50.968;3.134;2023-04-10T10:16:20;18.60;94.60
18105;DHT22;9179;50.968;3.134;2023-04-10T10:18:56;18.60;94.70
18105;DHT22;9179;50.968;3.134;2023-04-10T10:21:25;18.60;94.60
18105;DHT22;9179;50.968;3.134;2023-04-10T10:23:55;18.70;94.70
18105;DHT22;9179;50.968;3.134;2023-04-10T10:26:24;18.70;94.90
18105;DHT22;9179;50.968;3.134;2023-04-10T10:28:51;18.20;95.60
18105;DHT22;9179;50.968;3.134;2023-04-10T10:31:20;17.60;96.90
18105;DHT22;9179;50.968;3.134;2023-04-10T10:33:50;17.30;97.90
18105;DHT22;9179;50.968;3.134;2023-04-10T10:36:18;17.10;98.60
18105;DHT22;9179;50.968;3.134;2023-04-10T10:38:52;17.00;99.90
18105;DHT22;9179;50.968;3.134;2023-04-10T10:41:27;16.80;99.90
18105;DHT22;9179;50.968;3.134;2023-04-10T10:44:00;16.50;99.90
18105;DHT22;9179;50.968;3.134;2023-04-10T10:46:37;16.20;99.90
18105;DHT22;9179;50.968;3.134;2023-04-10T10:49:06;15.90;99.90
18105;DHT22;9179;50.968;3.134;2023-04-10T10:51:42;15.50;99.90
18105;DHT22;9179;50.968;3.134;2023-04-10T10:54:29;15.30;99.90
18105;DHT22;9179;50.968;3.134;2023-04-10T10:56:56;15.30;99.90
18105;DHT22;9179;50.968;3.134;2023-04-10T10:59:54;15.40;99.90
18105;DHT22;9179;50.968;3.134;2023-04-10T11:02:23;15.50;99.90
18105;DHT22;9179;50.968;3.134;2023-04-10T11:04:50;15.20;99.90
18105;DHT22;9179;50.968;3.134;2023-04-10T11:07:17;15.00;99.90
18105;DHT22;9179;50.968;3.134;2023-04-10T11:09:52;14.90;99.90
18105;DHT22;9179;50.968;3.134;2023-04-10T11:12:22;15.10;99.90
18105;DHT22;9179;50.968;3.134;2023-04-10T11:14:59;15.20;99.90
18105;DHT22;9179;50.968;3.134;2023-04-10T11:17:46;15.50;99.90
18105;DHT22;9179;50.968;3.134;2023-04-10T11:20:14;15.70;99.90
18105;DHT22;9179;50.968;3.134;2023-04-10T11:23:07;15.60;99.90
18105;DHT22;9179;50.968;3.134;2023-04-10T11:25:45;15.70;99.90
18105;DHT22;9179;50.968;3.134;2023-04-10T11:28:37;15.70;99.90
18105;DHT22;9179;50.968;3.134;2023-04-10T11:31:18;15.50;99.90
18105;DHT22;9179;50.968;3.134;2023-04-10T11:33:50;15.50;99.90
18105;DHT22;9179;50.968;3.134;2023-04-10T11:36:26;15.50;99.90
18105;DHT22;9179;50.968;3.134;2023-04-10T11:38:56;15.70;99.90
18105;DHT22;9179;50.968;3.134;2023-04-10T11:41:28;15.80;99.90
18105;DHT22;9179;50.968;3.134;2023-04-10T11:43:55;15.80;99.90
18105;DHT22;9179;50.968;3.134;2023-04-10T11:46:23;15.70;99.90
18105;DHT22;9179;50.968;3.134;2023-04-10T11:48:54;15.90;99.90
18105;DHT22;9179;50.968;3.134;2023-04-10T11:51:21;16.00;99.90
18105;DHT22;9179;50.968;3.134;2023-04-10T11:53:48;16.20;99.90
18105;DHT22;9179;50.968;3.134;2023-04-10T11:56:19;16.50;99.90
18105;DHT22;9179;50.968;3.134;2023-04-10T11:58:49;16.60;99.90
18105;DHT22;9179;50.968;3.134;2023-04-10T12:01:20;16.70;99.90
18105;DHT22;9179;50.968;3.134;2023-04-10T12:03:47;16.70;99.90
18105;DHT22;9179;50.968;3.134;2023-04-10T12:06:16;17.00;99.90
18105;DHT22;9179;50.968;3.134;2023-04-10T12:08:45;17.40;99.90
18105;DHT22;9179;50.968;3.134;2023-04-10T12:11:16;17.80;99.90
18105;DHT22;9179;50.968;3.134;2023-04-10T12:13:45;17.60;99.90
18105;DHT22;9179;50.968;3.134;2023-04-10T12:16:12;18.00;99.90
18105;DHT22;9179;50.968;3.134;2023-04-10T12:18:40;18.30;99.90
18105;DHT22;9179;50.968;3.134;2023-04-10T12:21:07;18.40;99.90
18105;DHT22;9179;50.968;3.134;2023-04-10T12:23:37;18.30;99.90
18105;DHT22;9179;50.968;3.134;2023-04-10T12:26:10;18.30;99.90
18105;DHT22;9179;50.968;3.134;2023-04-10T12:28:39;18.20;99.90
18105;DHT22;9179;50.968;3.134;2023-04-10T12:31:07;18.00;99.90
18105;DHT22;9179;50.968;3.134;2023-04-10T12:33:35;17.70;99.90
18105;DHT22;9179;50.968;3.134;2023-04-10T12:36:02;17.50;99.90
18105;DHT22;9179;50.968;3.134;2023-04-10T12:38:37;17.20;99.90
18105;DHT22;9179;50.968;3.134;2023-04-10T12:41:05;16.80;99.90
18105;DHT22;9179;50.968;3.134;2023-04-10T12:43:35;17.20;99.90
18105;DHT22;9179;50.968;3.134;2023-04-10T12:46:03;17.50;99.90
18105;DHT22;9179;50.968;3.134;2023-04-10T12:48:30;17.70;99.90
18105;DHT22;9179;50.968;3.134;2023-04-10T12:50:57;17.50;99.90
18105;DHT22;9179;50.968;3.134;2023-04-10T12:53:25;17.30;99.90
18105;DHT22;9179;50.968;3.134;2023-04-10T12:56:01;17.30;99.90
18105;DHT22;9179;50.968;3.134;2023-04-10T12:58:28;17.30;99.90
18105;DHT22;9179;50.968;3.134;2023-04-10T13:00:57;17.80;99.90
18105;DHT22;9179;50.968;3.134;2023-04-10T13:03:25;18.20;99.90
18105;DHT22;9179;50.968;3.134;2023-04-10T13:05:52;18.50;99.90
18105;DHT22;9179;50.968;3.134;2023-04-10T13:08:19;18.00;99.90
18105;DHT22;9179;50.968;3.134;2023-04-10T13:10:46;17.10;99.90
18105;DHT22;9179;50.968;3.134;2023-04-10T13:13:15;16.10;99.90
18105;DHT22;9179;50.968;3.134;2023-04-10T13:15:42;15.50;99.90
18105;DHT22;9179;50.968;3.134;2023-04-10T13:18:10;15.00;99.90
18105;DHT22;9179;50.968;3.134;2023-04-10T13:20:38;14.80;99.90
18105;DHT22;9179;50.968;3.134;2023-04-10T13:23:06;14.70;99.90
18105;DHT22;9179;50.968;3.134;2023-04-10T13:25:35;14.40;99.90
18105;DHT22;9179;50.968;3.134;2023-04-10T13:28:04;14.30;99.90
18105;DHT22;9179;50.968;3.134;2023-04-10T13:30:36;14.10;99.90
18105;DHT22;9179;50.968;3.134;2023-04-10T13:33:03;14.10;99.90
18105;DHT22;9179;50.968;3.134;2023-04-10T13:35:30;14.30;99.90
18105;DHT22;9179;50.968;3.134;2023-04-10T13:37:58;14.50;99.90
18105;DHT22;9179;50.968;3.134;2023-04-10T13:40:25;14.60;99.90
18105;DHT22;9179;50.968;3.134;2023-04-10T13:42:52;14.70;99.90
18105;DHT22;9179;50.968;3.134;2023-04-10T13:45:19;14.60;99.90
18105;DHT22;9179;50.968;3.134;2023-04-10T13:47:47;14.70;99.90
18105;DHT22;9179;50.968;3.134;2023-04-10T13:50:14;14.80;99.90
18105;DHT22;9179;50.968;3.134;2023-04-10T13:52:41;14.80;99.90
18105;DHT22;9179;50.968;3.134;2023-04-10T13:55:08;14.60;99.90
18105;DHT22;9179;50.968;3.134;2023-04-10T13:57:36;14.30;99.90
18105;DHT22;9179;50.968;3.134;2023-04-10T14:00:04;14.10;99.90
18105;DHT22;9179;50.968;3.134;2023-04-10T14:02:31;14.30;99.90
18105;DHT22;9179;50.968;3.134;2023-04-10T14:04:59;14.30;99.90
18105;DHT22;9179;50.968;3.134;2023-04-10T14:07:26;14.20;99.90
18105;DHT22;9179;50.968;3.134;2023-04-10T14:09:53;14.20;99.90
18105;DHT22;9179;50.968;3.134;2023-04-10T14:12:21;14.10;99.90
18105;DHT22;9179;50.968;3.134;2023-04-10T14:14:48;14.10;99.90
18105;DHT22;9179;50.968;3.134;2023-04-10T14:17:15;14.20;99.90
18105;DHT22;9179;50.968;3.134;2023-04-10T14:19:42;14.20;99.90
18105;DHT22;9179;50.968;3.134;2023-04-10T14:22:12;14.20;99.90
18105;DHT22;9179;50.968;3.134;2023-04-10T14:24:39;14.30;99.90
18105;DHT22;9179;50.968;3.134;2023-04-10T14:27:06;14.40;99.90
18105;DHT22;9179;50.968;3.134;2023-04-10T14:29:33;14.50;99.90
18105;DHT22;9179;50.968;3.134;2023-04-10T14:32:00;14.60;99.90
18105;DHT22;9179;50.968;3.134;2023-04-10T14:34:27;14.80;99.90
18105;DHT22;9179;50.968;3.134;2023-04-10T14:36:54;14.70;99.90
18105;DHT22;9179;50.968;3.134;2023-04-10T14:39:23;14.70;99.90
18105;DHT22;9179;50.968;3.134;2023-04-10T14:41:51;14.60;99.90
18105;DHT22;9179;50.968;3.134;2023-04-10T14:44:18;14.30;99.90
18105;DHT22;9179;50.968;3.134;2023-04-10T14:46:45;14.00;99.90
18105;DHT22;9179;50.968;3.134;2023-04-10T14:49:12;13.80;99.90
18105;DHT22;9179;50.968;3.134;2023-04-10T14:51:42;13.80;99.90
18105;DHT22;9179;50.968;3.134;2023-04-10T14:54:09;13.90;99.90
18105;DHT22;9179;50.968;3.134;2023-04-10T14:56:38;13.90;99.90
18105;DHT22;9179;50.968;3.134;2023-04-10T14:59:05;13.90;99.90
18105;DHT22;9179;50.968;3.134;2023-04-10T15:01:33;13.90;99.90
18105;DHT22;9179;50.968;3.134;2023-04-10T15:04:01;13.90;99.90
18105;DHT22;9179;50.968;3.134;2023-04-10T15:06:28;13.90;99.90
18105;DHT22;9179;50.968;3.134;2023-04-10T15:08:57;14.00;99.90
18105;DHT22;9179;50.968;3.134;2023-04-10T15:11:24;14.00;99.90
18105;DHT22;9179;50.968;3.134;2023-04-10T15:13:52;14.30;99.90
18105;DHT22;9179;50.968;3.134;2023-04-10T15:16:19;14.40;99.90
18105;DHT22;9179;50.968;3.134;2023-04-10T15:18:47;14.60;99.90
18105;DHT22;9179;50.968;3.134;2023-04-10T15:21:14;14.80;99.90
18105;DHT22;9179;50.968;3.134;2023-04-10T15:23:41;14.90;99.90
18105;DHT22;9179;50.968;3.134;2023-04-10T15:26:10;14.90;99.90
18105;DHT22;9179;50.968;3.134;2023-04-10T15:28:38;15.00;99.90
18105;DHT22;9179;50.968;3.134;2023-04-10T15:31:07;15.00;99.90
18105;DHT22;9179;50.968;3.134;2023-04-10T15:33:34;14.80;99.90
18105;DHT22;9179;50.968;3.134;2023-04-10T15:36:03;14.70;99.90
18105;DHT22;9179;50.968;3.134;2023-04-10T15:38:32;14.80;99.90
18105;DHT22;9179;50.968;3.134;2023-04-10T15:40:59;14.70;99.90
18105;DHT22;9179;50.968;3.134;2023-04-10T15:43:26;14.80;99.90
18105;DHT22;9179;50.968;3.134;2023-04-10T15:45:53;14.80;99.90
18105;DHT22;9179;50.968;3.134;2023-04-10T15:48:21;14.80;99.90
18105;DHT22;9179;50.968;3.134;2023-04-10T15:50:49;14.90;99.90
18105;DHT22;9179;50.968;3.134;2023-04-10T15:53:16;14.90;99.90